Time;durP1;ratioP1;P1;durP2;ratioP2;P2;SDS_P1;SDS_P2;PMS_P1;PMS_P2;Temp;Humidity;BMP_temperature;BMP_pressure;BME280_temperature;BME280_humidity;BME280_pressure;Samples;Min_cycle;Max_cycle;Signal;HPM_P1;HPM_P2
2021/09/21 00:00:52;;;;;;;;;;;13.10;99.90;;;;;;6209157;23;19984;-79
2021/09/21 00:03:37;;;;;;;;;;;13.10;99.90;;;;;;6226610;22;19951;-79
2021/09/21 00:13:18;;;;;;;;;;;13.10;99.90;;;;;;6218347;23;19919;-79
2021/09/21 00:19:57;;;;;;;;;;;13.00;99.90;;;;;;6270168;22;19931;-81
2021/09/21 00:23:02;;;;;;;;;;;12.90;99.90;;;;;;6221050;22;19914;-81
2021/09/21 00:26:07;;;;;;;;;;;12.90;99.90;;;;;;6246117;23;19933;-81
2021/09/21 00:33:05;;;;;;;;;;;13.00;99.90;;;;;;6261722;22;19934;-82
2021/09/21 00:36:24;;;;;;;;;;;13.00;99.90;;;;;;6246829;23;19920;-81
2021/09/21 00:39:14;;;;;;;;;;;12.90;99.90;;;;;;6243946;23;19939;-81
2021/09/21 00:50:09;;;;;;;;;;;12.90;99.90;;;;;;6269947;22;19923;-82
2021/09/21 00:53:06;;;;;;;;;;;12.90;99.90;;;;;;6256694;23;19924;-81
2021/09/21 00:56:21;;;;;;;;;;;12.90;99.90;;;;;;6236151;22;19934;-81
2021/09/21 00:59:36;;;;;;;;;;;12.90;99.90;;;;;;6236217;23;19908;-81
2021/09/21 01:02:31;;;;;;;;;;;12.90;99.90;;;;;;6256887;23;19927;-81
2021/09/21 01:05:31;;;;;;;;;;;12.90;99.90;;;;;;6234447;23;19928;-81
2021/09/21 01:08:27;;;;;;;;;;;12.80;99.90;;;;;;6234515;23;19907;-81
2021/09/21 01:11:23;;;;;;;;;;;12.80;99.90;;;;;;6235960;22;19920;-82
2021/09/21 01:14:25;;;;;;;;;;;12.80;99.90;;;;;;6237597;23;19924;-82
2021/09/21 01:20:51;;;;;;;;;;;12.80;99.90;;;;;;6235969;23;19930;-82
2021/09/21 01:24:12;;;;;;;;;;;12.80;99.90;;;;;;6235209;23;19920;-82
2021/09/21 01:27:05;;;;;;;;;;;12.70;99.90;;;;;;6255100;23;19908;-82
2021/09/21 01:30:02;;;;;;;;;;;12.80;99.90;;;;;;6237323;22;19918;-80
2021/09/21 01:32:52;;;;;;;;;;;12.60;99.90;;;;;;6268530;22;20322;-81
2021/09/21 01:35:44;;;;;;;;;;;12.60;99.90;;;;;;6244194;23;19934;-81
2021/09/21 01:38:37;;;;;;;;;;;12.60;99.90;;;;;;6266572;22;19951;-81
2021/09/21 01:41:32;;;;;;;;;;;12.60;99.90;;;;;;6245238;22;19963;-81
2021/09/21 01:44:30;;;;;;;;;;;12.60;99.90;;;;;;6242491;23;19923;-81
2021/09/21 01:50:56;;;;;;;;;;;12.60;99.90;;;;;;6266095;23;19920;-81
2021/09/21 01:54:29;;;;;;;;;;;12.60;99.90;;;;;;6266316;23;19923;-81
2021/09/21 02:00:45;;;;;;;;;;;12.60;99.90;;;;;;6245439;23;19920;-81
2021/09/21 02:03:35;;;;;;;;;;;12.50;99.90;;;;;;6265571;23;19930;-81
2021/09/21 02:06:33;;;;;;;;;;;12.50;99.90;;;;;;6267106;22;19929;-81
2021/09/21 02:09:39;;;;;;;;;;;12.40;99.90;;;;;;6264198;23;19919;-81
2021/09/21 02:13:03;;;;;;;;;;;12.50;99.90;;;;;;6244534;23;19919;-81
2021/09/21 02:15:59;;;;;;;;;;;12.50;99.90;;;;;;6243324;23;19968;-82
2021/09/21 02:18:58;;;;;;;;;;;12.50;99.90;;;;;;6265095;23;19918;-82
2021/09/21 02:21:53;;;;;;;;;;;12.50;99.90;;;;;;6242225;23;19923;-82
2021/09/21 02:24:45;;;;;;;;;;;12.50;99.90;;;;;;6245241;23;19926;-82
2021/09/21 02:27:35;;;;;;;;;;;12.50;99.90;;;;;;6243292;23;19923;-82
2021/09/21 02:30:35;;;;;;;;;;;12.40;99.90;;;;;;6264063;23;19920;-81
2021/09/21 02:33:27;;;;;;;;;;;12.40;99.90;;;;;;6265405;23;19960;-81
2021/09/21 02:36:24;;;;;;;;;;;12.30;99.90;;;;;;6241666;23;19924;-81
2021/09/21 02:39:19;;;;;;;;;;;12.40;99.90;;;;;;6222096;23;19908;-81
2021/09/21 02:42:11;;;;;;;;;;;12.40;99.90;;;;;;6240170;23;19931;-81
2021/09/21 02:45:00;;;;;;;;;;;12.40;99.90;;;;;;6243748;23;20334;-81
2021/09/21 02:47:52;;;;;;;;;;;12.40;99.90;;;;;;6239800;23;19924;-81
2021/09/21 02:50:43;;;;;;;;;;;12.40;99.90;;;;;;6244460;23;19930;-81
2021/09/21 02:53:34;;;;;;;;;;;12.40;99.90;;;;;;6242899;23;19967;-81
2021/09/21 02:56:34;;;;;;;;;;;12.40;99.90;;;;;;6242110;23;19926;-81
2021/09/21 02:59:24;;;;;;;;;;;12.30;99.90;;;;;;6242211;23;19920;-81
2021/09/21 03:02:14;;;;;;;;;;;12.20;99.90;;;;;;6265350;22;19978;-81
2021/09/21 03:05:11;;;;;;;;;;;12.20;99.90;;;;;;6244125;23;19920;-81
2021/09/21 03:08:05;;;;;;;;;;;12.10;99.90;;;;;;6262824;23;19919;-82
2021/09/21 03:11:18;;;;;;;;;;;12.20;99.90;;;;;;6241811;23;19926;-81
2021/09/21 03:17:27;;;;;;;;;;;12.20;99.90;;;;;;6241243;23;20357;-81
2021/09/21 03:20:17;;;;;;;;;;;12.20;99.90;;;;;;6240816;23;19920;-81
2021/09/21 03:23:08;;;;;;;;;;;12.20;99.90;;;;;;6243002;23;19935;-81
2021/09/21 03:26:20;;;;;;;;;;;12.20;99.90;;;;;;6263491;23;19924;-82
2021/09/21 03:29:12;;;;;;;;;;;12.20;99.90;;;;;;6243663;22;20468;-81
2021/09/21 03:32:03;;;;;;;;;;;12.10;99.90;;;;;;6261567;23;19934;-81
2021/09/21 03:34:56;;;;;;;;;;;12.10;99.90;;;;;;6243260;23;19923;-82
2021/09/21 03:37:46;;;;;;;;;;;12.10;99.90;;;;;;6243183;23;19943;-81
2021/09/21 03:41:02;;;;;;;;;;;12.10;99.90;;;;;;6246760;23;19978;-82
2021/09/21 03:44:23;;;;;;;;;;;12.20;99.90;;;;;;6244379;23;19941;-81
2021/09/21 03:47:20;;;;;;;;;;;12.20;99.90;;;;;;6224133;23;19990;-83
2021/09/21 03:50:13;;;;;;;;;;;12.20;99.90;;;;;;6267219;23;19919;-82
2021/09/21 03:53:49;;;;;;;;;;;12.20;99.90;;;;;;6267061;23;19919;-81
2021/09/21 03:56:48;;;;;;;;;;;12.10;99.90;;;;;;6268355;23;19931;-81
2021/09/21 03:59:46;;;;;;;;;;;12.10;99.90;;;;;;6247039;23;19930;-81
2021/09/21 04:02:59;;;;;;;;;;;12.00;99.90;;;;;;6233410;22;19930;-82
2021/09/21 04:05:52;;;;;;;;;;;12.00;99.90;;;;;;6265883;23;19930;-82
2021/09/21 04:08:52;;;;;;;;;;;11.90;99.90;;;;;;6243963;23;19930;-81
2021/09/21 04:12:18;;;;;;;;;;;11.90;99.90;;;;;;6242229;23;19919;-81
2021/09/21 04:15:22;;;;;;;;;;;11.90;99.90;;;;;;6242366;23;19927;-82
2021/09/21 04:18:17;;;;;;;;;;;11.90;99.90;;;;;;6242910;23;19923;-81
2021/09/21 04:21:49;;;;;;;;;;;11.90;99.90;;;;;;6264546;23;19919;-82
2021/09/21 04:24:44;;;;;;;;;;;12.00;99.90;;;;;;6265366;23;19924;-82
2021/09/21 04:27:58;;;;;;;;;;;12.00;99.90;;;;;;6240476;23;19942;-80
2021/09/21 04:30:49;;;;;;;;;;;12.00;99.90;;;;;;6243874;23;20034;-81
2021/09/21 04:33:49;;;;;;;;;;;12.00;99.90;;;;;;6242666;23;19920;-81
2021/09/21 04:36:39;;;;;;;;;;;12.00;99.90;;;;;;6244276;23;19920;-82
2021/09/21 04:39:30;;;;;;;;;;;11.90;99.90;;;;;;6242489;23;19920;-82
2021/09/21 04:42:22;;;;;;;;;;;11.80;99.90;;;;;;6261469;23;19919;-81
2021/09/21 04:45:18;;;;;;;;;;;11.80;99.90;;;;;;6245562;22;19920;-81
2021/09/21 04:48:11;;;;;;;;;;;11.90;99.90;;;;;;6262648;23;19918;-81
2021/09/21 04:51:14;;;;;;;;;;;11.90;99.90;;;;;;6261132;23;19920;-81
2021/09/21 04:54:10;;;;;;;;;;;11.90;99.90;;;;;;6258480;23;19943;-81
2021/09/21 05:03:16;;;;;;;;;;;11.90;99.90;;;;;;6208784;22;19928;-81
2021/09/21 05:18:21;;;;;;;;;;;11.80;99.90;;;;;;6250298;22;19919;-80
2021/09/21 05:21:22;;;;;;;;;;;11.80;99.90;;;;;;6219582;22;19926;-80
2021/09/21 06:53:48;;;;;;;;;;;12.40;99.90;;;;;;6176309;23;19925;-82
2021/09/21 06:57:09;;;;;;;;;;;12.30;99.90;;;;;;6178299;23;19909;-81
2021/09/21 07:00:29;;;;;;;;;;;12.40;99.90;;;;;;6180578;23;19940;-81
2021/09/21 07:12:46;;;;;;;;;;;12.50;99.90;;;;;;6239122;22;19907;-81
2021/09/21 07:15:51;;;;;;;;;;;12.50;99.90;;;;;;6268888;22;19919;-82
2021/09/21 07:18:46;;;;;;;;;;;12.50;99.90;;;;;;6271378;22;19951;-82
2021/09/21 07:22:40;;;;;;;;;;;12.60;99.90;;;;;;6268157;22;19908;-81
2021/09/21 07:25:32;;;;;;;;;;;12.70;99.90;;;;;;6215758;22;19972;-81
2021/09/21 07:28:46;;;;;;;;;;;12.70;99.90;;;;;;6202054;23;19920;-81
2021/09/21 07:31:38;;;;;;;;;;;12.80;99.90;;;;;;6225204;23;19916;-78
2021/09/21 07:34:27;;;;;;;;;;;12.80;99.90;;;;;;6206954;23;19951;-79
2021/09/21 07:37:22;;;;;;;;;;;13.00;99.90;;;;;;6206560;23;19926;-81
2021/09/21 07:40:12;;;;;;;;;;;13.00;99.90;;;;;;6225942;23;19920;-79
2021/09/21 07:43:02;;;;;;;;;;;13.00;99.90;;;;;;6227159;23;19924;-79
2021/09/21 07:45:56;;;;;;;;;;;13.00;99.90;;;;;;6226390;23;19998;-79
2021/09/21 07:48:48;;;;;;;;;;;13.00;99.90;;;;;;6206910;23;20333;-79
2021/09/21 07:51:43;;;;;;;;;;;13.10;99.90;;;;;;6206596;23;19919;-79
2021/09/21 07:54:37;;;;;;;;;;;13.10;99.90;;;;;;6229688;23;19979;-79
2021/09/21 07:57:27;;;;;;;;;;;13.10;99.90;;;;;;6206151;23;19920;-78
2021/09/21 08:00:21;;;;;;;;;;;13.10;99.90;;;;;;6229750;23;19955;-78
2021/09/21 08:03:28;;;;;;;;;;;13.00;99.90;;;;;;6228740;23;19920;-79
2021/09/21 08:06:20;;;;;;;;;;;13.10;99.90;;;;;;6230221;23;19934;-81
2021/09/21 08:09:09;;;;;;;;;;;13.10;99.90;;;;;;6230639;23;20239;-81
2021/09/21 08:11:58;;;;;;;;;;;13.10;99.90;;;;;;6231236;23;19943;-81
2021/09/21 08:15:00;;;;;;;;;;;13.10;99.90;;;;;;6206483;23;19943;-79
2021/09/21 08:17:54;;;;;;;;;;;13.20;99.90;;;;;;6229149;23;19920;-79
2021/09/21 08:20:48;;;;;;;;;;;13.30;99.90;;;;;;6207703;23;19940;-79
2021/09/21 08:23:39;;;;;;;;;;;13.40;99.90;;;;;;6229914;23;19990;-78
2021/09/21 08:26:34;;;;;;;;;;;13.40;99.90;;;;;;6209359;23;19920;-79
2021/09/21 08:29:27;;;;;;;;;;;13.50;99.90;;;;;;6235955;22;19916;-81
2021/09/21 08:32:16;;;;;;;;;;;13.60;99.90;;;;;;6209480;22;19986;-79
2021/09/21 08:35:33;;;;;;;;;;;13.70;99.90;;;;;;6211424;23;19920;-80
2021/09/21 08:38:22;;;;;;;;;;;13.80;99.90;;;;;;6235118;23;19934;-79
2021/09/21 08:41:14;;;;;;;;;;;13.90;99.90;;;;;;6212592;23;19947;-80
2021/09/21 08:44:03;;;;;;;;;;;13.90;99.90;;;;;;6230963;23;19920;-80
2021/09/21 08:46:53;;;;;;;;;;;13.90;99.90;;;;;;6229844;23;19923;-79
2021/09/21 08:49:53;;;;;;;;;;;14.00;99.90;;;;;;6211578;23;19920;-81
2021/09/21 08:56:00;;;;;;;;;;;14.10;99.90;;;;;;6212217;23;19908;-80
2021/09/21 08:59:05;;;;;;;;;;;14.20;99.90;;;;;;6214106;23;19924;-80
2021/09/21 09:01:54;;;;;;;;;;;14.30;99.90;;;;;;6208852;23;19920;-79
2021/09/21 09:08:28;;;;;;;;;;;14.40;99.90;;;;;;6235044;23;19943;-79
2021/09/21 09:11:21;;;;;;;;;;;14.50;99.90;;;;;;6216234;23;19924;-80
2021/09/21 09:14:22;;;;;;;;;;;14.70;99.90;;;;;;6234610;23;19930;-79
2021/09/21 09:17:28;;;;;;;;;;;14.80;99.90;;;;;;6234283;22;19991;-79
2021/09/21 09:20:43;;;;;;;;;;;15.00;99.90;;;;;;6234442;23;20329;-79
2021/09/21 09:24:04;;;;;;;;;;;15.00;99.80;;;;;;6215906;23;19935;-79
2021/09/21 09:30:19;;;;;;;;;;;14.90;99.50;;;;;;6237864;22;19928;-79
2021/09/21 09:33:24;;;;;;;;;;;14.70;98.90;;;;;;6235084;23;20011;-79
2021/09/21 09:36:29;;;;;;;;;;;14.70;99.10;;;;;;6232587;23;19920;-79
2021/09/21 09:39:25;;;;;;;;;;;14.80;99.30;;;;;;6235093;22;19920;-79
2021/09/21 09:42:21;;;;;;;;;;;14.90;99.20;;;;;;6236277;23;19962;-79
2021/09/21 09:45:11;;;;;;;;;;;15.00;98.70;;;;;;6233936;23;19978;-80
2021/09/21 09:48:09;;;;;;;;;;;15.10;98.80;;;;;;6233490;23;19920;-81
2021/09/21 09:51:24;;;;;;;;;;;15.00;98.50;;;;;;6235492;22;19920;-79
2021/09/21 09:54:40;;;;;;;;;;;15.10;98.20;;;;;;6237669;23;19994;-79
2021/09/21 09:57:55;;;;;;;;;;;15.10;98.30;;;;;;6236025;23;19908;-81
2021/09/21 10:01:21;;;;;;;;;;;15.10;98.10;;;;;;6234903;22;19908;-81
2021/09/21 10:07:57;;;;;;;;;;;15.20;97.90;;;;;;6227753;22;19988;-80
2021/09/21 10:15:08;;;;;;;;;;;15.50;97.10;;;;;;6240525;22;19907;-78
2021/09/21 10:47:14;;;;;;;;;;;15.80;95.30;;;;;;6232186;22;21091;-80
2021/09/21 10:54:18;;;;;;;;;;;15.70;94.90;;;;;;6241933;23;19930;-81
2021/09/21 10:57:45;;;;;;;;;;;15.60;95.50;;;;;;6238620;23;19934;-80
2021/09/21 11:00:57;;;;;;;;;;;15.60;95.40;;;;;;6240875;23;19966;-80
2021/09/21 11:10:36;;;;;;;;;;;15.30;95.00;;;;;;6248088;22;19920;-80
2021/09/21 11:13:48;;;;;;;;;;;15.30;94.70;;;;;;6237121;22;19907;-80
2021/09/21 11:17:10;;;;;;;;;;;15.30;94.40;;;;;;6208770;22;19923;-84
2021/09/21 15:49:02;;;;;;;;;;;16.10;92.40;;;;;;6236008;22;19943;-80
2021/09/21 15:52:22;;;;;;;;;;;16.10;92.40;;;;;;6261144;23;19991;-81
2021/09/21 15:55:41;;;;;;;;;;;16.00;92.30;;;;;;6227826;23;19942;-81
2021/09/21 16:02:19;;;;;;;;;;;15.90;93.30;;;;;;6226088;23;19923;-81
2021/09/21 16:05:22;;;;;;;;;;;15.90;92.70;;;;;;6236202;23;19990;-81
2021/09/21 16:08:27;;;;;;;;;;;15.90;92.90;;;;;;6261443;23;19974;-80
2021/09/21 16:11:24;;;;;;;;;;;15.80;92.90;;;;;;6259310;23;19924;-81
2021/09/21 16:14:41;;;;;;;;;;;15.80;93.10;;;;;;6240108;23;19963;-81
2021/09/21 16:18:09;;;;;;;;;;;15.80;92.80;;;;;;6240503;23;19932;-80
2021/09/21 16:21:12;;;;;;;;;;;15.70;93.00;;;;;;6227888;23;20230;-80
2021/09/21 16:24:06;;;;;;;;;;;15.70;93.20;;;;;;6234488;23;20293;-79
2021/09/21 16:32:49;;;;;;;;;;;15.70;93.50;;;;;;6243742;22;19920;-80
2021/09/21 16:35:44;;;;;;;;;;;15.70;93.70;;;;;;6254927;23;19919;-80
2021/09/21 16:38:36;;;;;;;;;;;15.60;93.50;;;;;;6232706;23;19920;-80
2021/09/21 16:41:34;;;;;;;;;;;15.60;93.70;;;;;;6233694;22;19920;-80
2021/09/21 16:44:32;;;;;;;;;;;15.70;94.00;;;;;;6240363;23;19942;-80
